Time;durP1;ratioP1;P1;durP2;ratioP2;P2;SDS_P1;SDS_P2;PMS_P1;PMS_P2;Temp;Humidity;BMP_temperature;BMP_pressure;BME280_temperature;BME280_humidity;BME280_pressure;Samples;Min_cycle;Max_cycle;Signal;HPM_P1;HPM_P2
2023/08/03 00:00:12;;;;;;;1.30;1.20;;;18.30;99.90;;;;;;5084388;28;20554;-80
2023/08/03 00:02:39;;;;;;;4.70;1.37;;;18.30;99.90;;;;;;5082718;28;20475;-80
2023/08/03 00:05:06;;;;;;;1.53;1.23;;;18.20;99.90;;;;;;5082567;28;21245;-80
2023/08/03 00:07:34;;;;;;;2.00;1.27;;;18.20;99.90;;;;;;5085138;28;20510;-80
2023/08/03 00:10:01;;;;;;;1.50;1.20;;;18.20;99.90;;;;;;5087658;28;20790;-79
2023/08/03 00:12:28;;;;;;;3.60;1.20;;;18.30;99.90;;;;;;5085779;28;20543;-78
2023/08/03 00:14:55;;;;;;;2.13;1.60;;;18.20;99.90;;;;;;5088210;28;20535;-79
2023/08/03 00:17:24;;;;;;;1.30;1.20;;;18.20;99.90;;;;;;5086978;28;20523;-80
2023/08/03 00:19:51;;;;;;;1.30;1.20;;;18.20;99.90;;;;;;5085652;28;20500;-79
2023/08/03 00:22:18;;;;;;;2.13;1.50;;;18.20;99.90;;;;;;5087498;28;21221;-79
2023/08/03 00:24:45;;;;;;;1.63;1.53;;;18.20;99.90;;;;;;5088020;28;20476;-79
2023/08/03 00:27:12;;;;;;;1.77;1.47;;;18.20;99.90;;;;;;5087201;28;20442;-80
2023/08/03 00:29:39;;;;;;;1.50;1.23;;;18.20;99.90;;;;;;5084440;28;20535;-80
2023/08/03 00:32:07;;;;;;;1.87;1.43;;;18.20;99.90;;;;;;5088105;28;20445;-80
2023/08/03 00:34:35;;;;;;;1.40;1.30;;;18.20;99.90;;;;;;5087637;28;20500;-79
2023/08/03 00:37:02;;;;;;;1.70;1.60;;;18.20;99.90;;;;;;5087016;28;20454;-80
2023/08/03 00:39:29;;;;;;;3.00;1.10;;;18.20;99.90;;;;;;5084437;28;20532;-80
2023/08/03 00:41:56;;;;;;;1.50;1.37;;;18.30;99.90;;;;;;5083060;28;20446;-80
2023/08/03 00:44:23;;;;;;;0.90;0.90;;;18.40;99.90;;;;;;5086987;28;20551;-79
2023/08/03 00:46:51;;;;;;;2.67;1.70;;;18.50;99.90;;;;;;5082870;28;21299;-79
2023/08/03 00:49:18;;;;;;;1.77;1.43;;;18.50;99.90;;;;;;5088621;28;20479;-79
2023/08/03 00:51:47;;;;;;;1.03;0.93;;;18.50;99.90;;;;;;5087838;28;20540;-80
2023/08/03 00:54:14;;;;;;;1.63;1.53;;;18.50;99.90;;;;;;5079898;28;20484;-79
2023/08/03 00:56:41;;;;;;;1.23;1.10;;;18.50;99.90;;;;;;5088561;28;20448;-79
2023/08/03 00:59:10;;;;;;;1.73;1.40;;;18.50;99.90;;;;;;5087902;28;20461;-79
2023/08/03 01:01:38;;;;;;;2.03;1.30;;;18.50;99.90;;;;;;5088243;28;20594;-79
2023/08/03 01:04:05;;;;;;;1.53;0.93;;;18.60;99.90;;;;;;5090311;28;20578;-80
2023/08/03 01:06:32;;;;;;;1.93;1.80;;;18.60;99.90;;;;;;5093190;28;20482;-79
2023/08/03 01:09:00;;;;;;;1.83;1.10;;;18.60;99.90;;;;;;5096780;28;20471;-80
2023/08/03 01:11:28;;;;;;;1.30;0.90;;;18.60;99.90;;;;;;5089341;28;20997;-79
2023/08/03 01:13:56;;;;;;;1.00;0.90;;;18.60;99.90;;;;;;5090371;28;20454;-78
2023/08/03 01:16:24;;;;;;;1.77;1.67;;;18.70;99.90;;;;;;5086581;28;20466;-79
2023/08/03 01:18:51;;;;;;;0.90;0.70;;;18.60;99.90;;;;;;5086232;28;20458;-79
2023/08/03 01:21:20;;;;;;;1.87;0.93;;;18.60;99.90;;;;;;5087883;28;20540;-79
2023/08/03 01:23:48;;;;;;;1.20;1.10;;;18.70;99.90;;;;;;5080144;28;20455;-79
2023/08/03 01:26:15;;;;;;;1.90;1.03;;;18.60;99.90;;;;;;5081032;28;20482;-79
2023/08/03 01:28:42;;;;;;;1.00;0.90;;;18.60;99.90;;;;;;5084835;28;21180;-80
2023/08/03 01:31:09;;;;;;;5.43;1.40;;;18.50;99.90;;;;;;5079581;28;20473;-80
2023/08/03 01:33:36;;;;;;;2.80;1.00;;;18.40;99.90;;;;;;5085100;28;20463;-79
2023/08/03 01:36:04;;;;;;;4.10;1.20;;;18.20;99.90;;;;;;5084722;28;20443;-80
2023/08/03 01:38:31;;;;;;;1.60;1.20;;;18.00;99.90;;;;;;5077359;28;20604;-79
2023/08/03 01:41:00;;;;;;;1.20;0.77;;;17.80;99.90;;;;;;5083273;28;20463;-77
2023/08/03 01:43:27;;;;;;;1.03;0.70;;;17.60;99.90;;;;;;5084126;28;20533;-76
2023/08/03 01:45:54;;;;;;;1.73;0.93;;;17.30;99.90;;;;;;5084965;28;20478;-77
2023/08/03 01:48:21;;;;;;;2.40;0.80;;;17.10;99.90;;;;;;5081997;28;20518;-76
2023/08/03 01:50:47;;;;;;;1.53;0.93;;;17.00;99.90;;;;;;5085816;28;20465;-76
2023/08/03 01:53:16;;;;;;;2.30;0.60;;;16.90;99.90;;;;;;5082645;28;20550;-76
2023/08/03 01:55:45;;;;;;;2.00;0.70;;;16.80;99.90;;;;;;5086515;28;20451;-76
2023/08/03 01:58:14;;;;;;;0.93;0.90;;;16.70;99.90;;;;;;5085462;28;20446;-77
2023/08/03 02:00:40;;;;;;;1.30;0.80;;;16.70;99.90;;;;;;5083644;28;20497;-77
2023/08/03 02:03:07;;;;;;;1.67;1.00;;;16.60;99.90;;;;;;5085593;28;20451;-76
2023/08/03 02:05:34;;;;;;;1.60;0.70;;;16.60;99.90;;;;;;5085463;28;20519;-77
2023/08/03 02:08:01;;;;;;;2.83;0.70;;;16.60;99.90;;;;;;5081801;28;20992;-76
2023/08/03 02:10:28;;;;;;;1.93;1.77;;;16.60;99.90;;;;;;5085781;28;20488;-77
2023/08/03 02:12:55;;;;;;;1.23;0.93;;;16.60;99.90;;;;;;5082733;28;20478;-76
2023/08/03 02:15:24;;;;;;;0.93;0.93;;;16.60;99.90;;;;;;5082085;28;21200;-77
2023/08/03 02:17:50;;;;;;;1.40;1.00;;;16.70;99.90;;;;;;5084756;28;20961;-77
2023/08/03 02:20:18;;;;;;;0.80;0.70;;;16.70;99.90;;;;;;5084665;28;20451;-77
2023/08/03 02:22:45;;;;;;;1.20;0.70;;;16.70;99.90;;;;;;5081613;28;20506;-76
2023/08/03 02:25:11;;;;;;;1.03;0.93;;;16.70;99.90;;;;;;5085371;28;20573;-77
2023/08/03 02:27:39;;;;;;;0.80;0.73;;;16.70;99.90;;;;;;5086213;28;20497;-78
2023/08/03 02:30:09;;;;;;;1.70;0.90;;;16.70;99.90;;;;;;5083258;28;20520;-77
2023/08/03 02:32:38;;;;;;;1.47;0.60;;;16.60;99.90;;;;;;5083855;28;20467;-77
2023/08/03 02:35:05;;;;;;;1.03;0.90;;;16.60;99.90;;;;;;5090801;28;20457;-77
2023/08/03 02:37:35;;;;;;;1.40;0.67;;;16.60;99.90;;;;;;5086678;28;20469;-77
2023/08/03 02:40:02;;;;;;;0.97;0.97;;;16.60;99.90;;;;;;5074755;28;20471;-77
2023/08/03 02:42:28;;;;;;;2.67;0.77;;;16.60;99.90;;;;;;5084964;28;20440;-77
2023/08/03 02:44:55;;;;;;;0.90;0.67;;;16.70;99.90;;;;;;5084010;28;21029;-78
2023/08/03 02:47:22;;;;;;;1.50;0.70;;;16.60;99.90;;;;;;5081804;28;20459;-77
2023/08/03 02:49:50;;;;;;;2.30;0.77;;;16.60;99.90;;;;;;5081581;28;20452;-77
2023/08/03 02:52:17;;;;;;;2.77;0.83;;;16.70;99.90;;;;;;5083829;28;20496;-77
2023/08/03 02:54:44;;;;;;;1.03;0.50;;;16.60;99.90;;;;;;5081318;28;20460;-77
2023/08/03 02:57:11;;;;;;;4.13;1.27;;;16.70;99.90;;;;;;5081295;28;20474;-77
2023/08/03 02:59:38;;;;;;;1.37;0.70;;;16.70;99.90;;;;;;5084260;28;20528;-78
2023/08/03 03:02:06;;;;;;;0.83;0.80;;;16.80;99.90;;;;;;5085366;28;20501;-78
2023/08/03 03:04:32;;;;;;;3.80;2.20;;;16.90;99.90;;;;;;5083394;28;20479;-78
2023/08/03 03:07:01;;;;;;;1.03;0.80;;;16.90;99.90;;;;;;5081652;28;20463;-78
2023/08/03 03:09:28;;;;;;;2.17;1.13;;;16.90;99.90;;;;;;5085210;28;20512;-80
2023/08/03 03:11:55;;;;;;;1.13;0.70;;;16.90;99.90;;;;;;5084229;28;20437;-80
2023/08/03 03:14:23;;;;;;;1.00;0.70;;;16.80;99.90;;;;;;5083583;28;20531;-79
2023/08/03 03:16:50;;;;;;;1.00;0.70;;;16.90;99.90;;;;;;5080630;28;20877;-79
2023/08/03 03:19:17;;;;;;;3.80;1.10;;;16.80;99.90;;;;;;5082416;28;20553;-80
2023/08/03 03:21:44;;;;;;;1.73;1.13;;;16.70;99.90;;;;;;5084671;28;21006;-77
2023/08/03 03:24:12;;;;;;;3.53;0.80;;;16.70;99.90;;;;;;5082349;28;20459;-78
2023/08/03 03:26:39;;;;;;;0.97;0.60;;;16.60;99.90;;;;;;5082160;28;20486;-79
2023/08/03 03:29:06;;;;;;;3.27;0.80;;;16.50;99.90;;;;;;5084550;28;20475;-80
2023/08/03 03:31:33;;;;;;;1.77;0.77;;;16.40;99.90;;;;;;5084574;28;20499;-78
2023/08/03 03:34:00;;;;;;;0.80;0.60;;;16.30;99.90;;;;;;5084183;28;20471;-78
2023/08/03 03:36:27;;;;;;;2.53;0.90;;;16.30;99.90;;;;;;5083064;28;20533;-78
2023/08/03 03:38:54;;;;;;;1.17;0.73;;;16.20;99.90;;;;;;5085149;28;20994;-78
2023/08/03 03:41:22;;;;;;;2.40;0.73;;;16.20;99.90;;;;;;5086351;28;20452;-77
2023/08/03 03:43:49;;;;;;;1.63;0.90;;;16.20;99.90;;;;;;5087516;28;20484;-77
2023/08/03 03:46:16;;;;;;;2.40;1.00;;;16.10;99.90;;;;;;5087982;28;20486;-78
2023/08/03 03:48:43;;;;;;;1.13;0.57;;;16.10;99.90;;;;;;5089201;28;20432;-78
2023/08/03 03:51:10;;;;;;;1.97;0.70;;;16.10;99.90;;;;;;5084888;28;20444;-78
2023/08/03 03:53:37;;;;;;;1.53;1.10;;;16.00;99.90;;;;;;5087365;28;20511;-79
2023/08/03 03:56:04;;;;;;;4.87;1.63;;;15.90;99.90;;;;;;5092495;28;20463;-78
2023/08/03 03:58:32;;;;;;;1.37;0.60;;;15.90;99.90;;;;;;5098241;28;20443;-80
2023/08/03 04:01:00;;;;;;;3.23;0.80;;;15.90;99.90;;;;;;5099066;28;21050;-79
2023/08/03 04:03:27;;;;;;;0.70;0.60;;;16.00;99.90;;;;;;5094659;28;20474;-78
2023/08/03 04:05:54;;;;;;;3.97;0.80;;;16.00;99.90;;;;;;5086904;28;20573;-79
2023/08/03 04:08:21;;;;;;;0.60;0.50;;;15.90;99.90;;;;;;5088017;28;20991;-78
2023/08/03 04:10:48;;;;;;;2.00;0.80;;;16.00;99.90;;;;;;5085614;28;20440;-79
2023/08/03 04:13:15;;;;;;;2.73;0.60;;;16.00;99.90;;;;;;5081988;28;20545;-78
2023/08/03 04:15:43;;;;;;;2.67;0.93;;;15.90;99.90;;;;;;5086513;28;20500;-79
2023/08/03 04:18:10;;;;;;;1.23;1.00;;;15.90;99.90;;;;;;5083439;28;20445;-80
2023/08/03 04:20:37;;;;;;;8.70;1.20;;;15.90;99.90;;;;;;5086381;28;20542;-79
2023/08/03 04:23:04;;;;;;;1.20;0.60;;;15.80;99.90;;;;;;5086219;28;21037;-78
2023/08/03 04:25:31;;;;;;;2.67;0.63;;;15.90;99.90;;;;;;5084139;28;20508;-79
2023/08/03 04:27:58;;;;;;;1.03;0.70;;;15.90;99.90;;;;;;5083967;28;21002;-78
2023/08/03 04:30:25;;;;;;;2.27;0.87;;;15.90;99.90;;;;;;5080706;28;20450;-79
2023/08/03 04:32:53;;;;;;;0.70;0.50;;;16.00;99.90;;;;;;5081199;28;21009;-79
2023/08/03 04:35:20;;;;;;;6.13;0.87;;;16.00;99.90;;;;;;5080438;28;21138;-80
2023/08/03 04:37:47;;;;;;;3.13;1.00;;;16.10;99.90;;;;;;5084743;28;20465;-79
2023/08/03 04:40:14;;;;;;;0.80;0.60;;;16.00;99.90;;;;;;5085490;28;20499;-78
2023/08/03 04:42:41;;;;;;;1.13;0.57;;;16.00;99.90;;;;;;5083591;28;20527;-81
2023/08/03 04:45:09;;;;;;;1.07;0.90;;;16.10;99.90;;;;;;5082351;28;21002;-79
2023/08/03 04:47:36;;;;;;;0.87;0.87;;;16.10;99.90;;;;;;5081800;28;20521;-79
2023/08/03 04:50:04;;;;;;;4.87;1.17;;;16.10;99.90;;;;;;5085742;28;20458;-78
2023/08/03 04:52:31;;;;;;;0.60;0.50;;;16.10;99.90;;;;;;5078254;28;20483;-79
2023/08/03 04:54:58;;;;;;;1.33;0.77;;;16.10;99.90;;;;;;5081423;28;20507;-80
2023/08/03 04:57:25;;;;;;;0.97;0.90;;;16.10;99.90;;;;;;5083039;28;20528;-79
2023/08/03 04:59:52;;;;;;;2.97;0.73;;;16.10;99.90;;;;;;5087895;28;20502;-80
2023/08/03 05:02:19;;;;;;;3.13;1.00;;;16.10;99.90;;;;;;5083598;28;20465;-79
2023/08/03 05:04:46;;;;;;;0.80;0.77;;;16.00;99.90;;;;;;5082070;28;20515;-79
2023/08/03 05:07:14;;;;;;;1.07;0.60;;;16.10;99.90;;;;;;5076894;28;20508;-79
2023/08/03 05:09:41;;;;;;;3.33;0.80;;;16.20;99.90;;;;;;5083831;28;20462;-79
2023/08/03 05:12:09;;;;;;;1.43;0.83;;;16.10;99.90;;;;;;5080831;28;20508;-79
2023/08/03 05:14:36;;;;;;;0.70;0.50;;;16.10;99.90;;;;;;5078714;28;20868;-80
2023/08/03 05:17:02;;;;;;;1.33;0.40;;;16.10;99.90;;;;;;5081930;28;20535;-79
2023/08/03 05:19:29;;;;;;;3.00;0.70;;;16.00;99.90;;;;;;5081119;28;20498;-79
2023/08/03 05:21:57;;;;;;;1.00;0.70;;;16.00;99.90;;;;;;5080661;28;20457;-81
2023/08/03 05:24:25;;;;;;;4.43;1.27;;;16.00;99.90;;;;;;5091695;28;20457;-81
2023/08/03 05:26:52;;;;;;;2.30;0.80;;;16.10;99.90;;;;;;5097329;28;20478;-80
2023/08/03 05:29:19;;;;;;;2.07;0.63;;;16.10;99.90;;;;;;5088697;28;20458;-79
2023/08/03 05:31:48;;;;;;;0.70;0.60;;;16.10;99.90;;;;;;5088758;28;20520;-79
2023/08/03 05:34:15;;;;;;;0.67;0.60;;;16.10;99.90;;;;;;5084434;28;20540;-80
2023/08/03 05:36:42;;;;;;;2.20;0.60;;;16.20;99.90;;;;;;5080702;28;20537;-80
2023/08/03 05:39:10;;;;;;;1.20;0.60;;;16.20;99.90;;;;;;5082191;28;20479;-82
2023/08/03 05:41:38;;;;;;;1.10;0.50;;;16.20;99.90;;;;;;5081938;28;20451;-80
2023/08/03 05:44:05;;;;;;;1.77;0.57;;;16.30;99.90;;;;;;5078153;28;20440;-81
2023/08/03 05:46:33;;;;;;;0.60;0.50;;;16.30;99.90;;;;;;5079965;28;20487;-83
2023/08/03 05:49:00;;;;;;;1.13;0.80;;;16.30;99.90;;;;;;5085636;28;20439;-79
2023/08/03 05:51:28;;;;;;;4.33;0.70;;;16.30;99.90;;;;;;5086156;28;20803;-79
2023/08/03 05:53:56;;;;;;;3.23;1.20;;;16.30;99.90;;;;;;5085744;28;20443;-79
2023/08/03 05:56:24;;;;;;;2.20;0.70;;;16.50;99.90;;;;;;5075824;28;20464;-80
2023/08/03 05:58:54;;;;;;;0.57;0.50;;;16.40;99.90;;;;;;5082634;28;20441;-79
2023/08/03 06:01:22;;;;;;;5.60;0.60;;;16.50;99.90;;;;;;5083441;28;20474;-80
2023/08/03 06:03:52;;;;;;;1.23;0.70;;;16.50;99.90;;;;;;5083498;28;20516;-79
2023/08/03 06:06:20;;;;;;;1.50;0.60;;;16.50;99.90;;;;;;5080866;28;20498;-80
2023/08/03 06:08:50;;;;;;;1.80;0.60;;;16.50;99.90;;;;;;5084384;28;20448;-78
2023/08/03 06:11:20;;;;;;;2.30;0.70;;;16.50;99.90;;;;;;5080721;28;20540;-80
2023/08/03 06:13:47;;;;;;;2.97;1.47;;;16.50;99.90;;;;;;5077435;28;20476;-80
2023/08/03 06:16:16;;;;;;;1.30;0.53;;;16.40;99.90;;;;;;5078979;28;20526;-78
2023/08/03 06:18:49;;;;;;;2.80;0.80;;;16.40;99.90;;;;;;5080433;28;20524;-79
2023/08/03 06:21:17;;;;;;;1.03;0.50;;;16.30;99.90;;;;;;5078875;28;21081;-81
2023/08/03 06:23:46;;;;;;;3.27;0.90;;;16.40;99.90;;;;;;5082442;28;20439;-79
2023/08/03 06:26:16;;;;;;;4.33;0.60;;;16.30;99.90;;;;;;5079747;28;20516;-81
2023/08/03 06:28:44;;;;;;;1.27;0.73;;;16.30;99.90;;;;;;5084313;28;20451;-81
2023/08/03 06:31:15;;;;;;;1.30;0.60;;;16.30;99.90;;;;;;5081185;28;20496;-82
2023/08/03 06:33:44;;;;;;;4.43;0.70;;;16.40;99.90;;;;;;5083003;28;20447;-79
2023/08/03 06:36:14;;;;;;;1.50;0.60;;;16.40;99.90;;;;;;5079143;28;20518;-80
2023/08/03 06:38:42;;;;;;;4.67;0.90;;;16.50;99.90;;;;;;5084564;28;20435;-80
2023/08/03 06:41:09;;;;;;;0.93;0.70;;;16.50;99.90;;;;;;5085452;28;20470;-83
2023/08/03 06:43:37;;;;;;;1.53;1.43;;;16.60;99.90;;;;;;5088148;28;20466;-80
2023/08/03 06:46:05;;;;;;;3.40;0.70;;;16.60;99.90;;;;;;5086198;28;20474;-80
2023/08/03 06:48:34;;;;;;;1.20;0.70;;;16.60;99.90;;;;;;5095738;28;20467;-79
2023/08/03 06:51:01;;;;;;;2.73;0.60;;;16.70;99.90;;;;;;5096052;28;20496;-80
2023/08/03 06:53:29;;;;;;;1.70;0.63;;;16.70;99.90;;;;;;5090103;28;20474;-79
2023/08/03 06:55:56;;;;;;;2.23;0.70;;;16.80;99.90;;;;;;5087311;28;20439;-77
2023/08/03 06:58:23;;;;;;;1.43;0.80;;;16.70;99.90;;;;;;5080142;28;20541;-78
2023/08/03 07:00:50;;;;;;;4.80;1.30;;;16.60;99.90;;;;;;5076454;28;20499;-76
2023/08/03 07:03:18;;;;;;;1.90;0.57;;;16.60;99.90;;;;;;5083590;28;20496;-79
2023/08/03 07:05:46;;;;;;;2.60;0.63;;;16.50;99.90;;;;;;5081398;28;20505;-77
2023/08/03 07:08:13;;;;;;;2.60;0.97;;;16.50;99.90;;;;;;5076121;28;20552;-80
2023/08/03 07:10:41;;;;;;;1.93;0.50;;;16.50;99.90;;;;;;5081464;28;20444;-78
2023/08/03 07:13:08;;;;;;;1.30;0.60;;;16.50;99.90;;;;;;5079992;28;20557;-79
2023/08/03 07:15:35;;;;;;;2.00;0.60;;;16.50;99.90;;;;;;5083708;28;20453;-79
2023/08/03 07:18:03;;;;;;;3.50;0.73;;;16.50;99.90;;;;;;5079894;28;20617;-77
2023/08/03 07:20:30;;;;;;;0.80;0.50;;;16.60;99.90;;;;;;5083666;28;20450;-77
2023/08/03 07:22:59;;;;;;;2.77;0.77;;;16.60;99.90;;;;;;5078587;28;21091;-78
2023/08/03 07:25:26;;;;;;;4.40;1.13;;;16.60;99.90;;;;;;5085038;28;20535;-79
2023/08/03 07:27:54;;;;;;;2.10;0.60;;;16.70;99.90;;;;;;5085307;28;20517;-78
2023/08/03 07:30:22;;;;;;;4.87;0.70;;;16.70;99.90;;;;;;5080605;28;20455;-77
2023/08/03 07:32:51;;;;;;;1.83;0.60;;;16.70;99.90;;;;;;5084662;28;20519;-76
2023/08/03 07:35:18;;;;;;;1.47;0.60;;;16.70;99.90;;;;;;5082977;28;21090;-79
2023/08/03 07:37:45;;;;;;;3.60;0.80;;;16.80;99.90;;;;;;5082441;28;20524;-78
2023/08/03 07:40:13;;;;;;;1.50;0.50;;;16.80;99.90;;;;;;5085109;28;20505;-78
2023/08/03 07:42:40;;;;;;;1.80;0.50;;;16.80;99.90;;;;;;5083459;28;20582;-79
2023/08/03 07:45:08;;;;;;;2.00;0.60;;;16.70;99.90;;;;;;5083673;28;20434;-81
2023/08/03 07:47:35;;;;;;;2.90;0.70;;;16.80;99.90;;;;;;5081668;28;20514;-78
2023/08/03 07:50:03;;;;;;;5.23;0.80;;;16.80;99.90;;;;;;5088900;28;21065;-78
2023/08/03 07:52:30;;;;;;;2.00;0.60;;;16.80;99.90;;;;;;5086480;28;20509;-79
2023/08/03 07:54:57;;;;;;;0.93;0.50;;;16.90;99.90;;;;;;5086349;28;20995;-79
2023/08/03 07:57:25;;;;;;;0.70;0.50;;;16.90;99.90;;;;;;5088374;28;20471;-78
2023/08/03 07:59:53;;;;;;;1.40;0.50;;;16.90;99.90;;;;;;5083764;28;20535;-77
2023/08/03 08:02:20;;;;;;;1.10;0.50;;;17.00;99.90;;;;;;5083953;28;20551;-77
2023/08/03 08:04:51;;;;;;;1.23;0.50;;;17.00;99.90;;;;;;5083429;28;21255;-77
2023/08/03 08:07:18;;;;;;;0.60;0.47;;;17.00;99.90;;;;;;5076948;28;20562;-78
2023/08/03 08:09:45;;;;;;;1.07;0.40;;;17.00;99.90;;;;;;5085075;28;20443;-77
2023/08/03 08:12:12;;;;;;;1.73;0.70;;;17.20;99.90;;;;;;5082744;28;20516;-78
2023/08/03 08:14:41;;;;;;;1.17;0.40;;;17.20;99.90;;;;;;5082259;28;20483;-77
2023/08/03 08:17:08;;;;;;;1.67;0.50;;;17.10;99.90;;;;;;5094836;28;20541;-77
2023/08/03 08:19:35;;;;;;;0.73;0.60;;;17.10;99.90;;;;;;5088458;28;20511;-79
2023/08/03 08:22:03;;;;;;;0.90;0.50;;;17.10;99.90;;;;;;5090103;28;20504;-77
2023/08/03 08:24:30;;;;;;;0.70;0.50;;;17.00;99.90;;;;;;5084079;28;20877;-77
2023/08/03 08:26:57;;;;;;;3.00;0.50;;;16.90;99.90;;;;;;5080329;28;20513;-78
2023/08/03 08:29:24;;;;;;;0.50;0.40;;;16.80;99.90;;;;;;5079132;28;21019;-78
2023/08/03 08:31:52;;;;;;;1.60;0.63;;;16.80;99.90;;;;;;5081496;28;20457;-78
2023/08/03 08:34:19;;;;;;;1.10;0.40;;;16.80;99.90;;;;;;5083695;28;20465;-77
2023/08/03 08:36:46;;;;;;;3.60;0.90;;;16.70;99.90;;;;;;5080265;28;20451;-77
2023/08/03 08:39:13;;;;;;;0.80;0.60;;;16.50;99.90;;;;;;5082374;28;20454;-78
2023/08/03 08:41:41;;;;;;;0.60;0.53;;;16.50;99.90;;;;;;5081305;28;20533;-77
2023/08/03 08:44:13;;;;;;;0.70;0.47;;;16.50;99.90;;;;;;5082411;28;21017;-78
2023/08/03 08:46:42;;;;;;;0.43;0.30;;;16.40;99.90;;;;;;5080846;28;20533;-78
2023/08/03 08:49:11;;;;;;;0.60;0.40;;;16.50;99.90;;;;;;5085817;28;20925;-78
2023/08/03 08:51:40;;;;;;;0.60;0.40;;;16.40;99.90;;;;;;5084227;28;20445;-78
2023/08/03 08:54:07;;;;;;;1.70;0.40;;;16.50;99.90;;;;;;5087601;28;20508;-79
2023/08/03 08:56:34;;;;;;;2.33;0.53;;;16.50;99.90;;;;;;5084563;28;20475;-80
2023/08/03 08:59:01;;;;;;;0.50;0.40;;;16.40;99.90;;;;;;5084926;28;20441;-78
2023/08/03 09:01:28;;;;;;;1.60;0.40;;;16.40;99.90;;;;;;5084967;28;20468;-79
2023/08/03 09:03:56;;;;;;;1.43;0.40;;;16.40;99.90;;;;;;5080357;28;20554;-79
2023/08/03 09:06:24;;;;;;;1.13;0.53;;;16.30;99.90;;;;;;5082297;28;20484;-80
2023/08/03 09:08:54;;;;;;;0.43;0.30;;;16.30;99.90;;;;;;5081630;28;20908;-78
2023/08/03 09:11:36;;;;;;;1.00;0.50;;;16.40;99.90;;;;;;5084191;28;20531;-78
2023/08/03 09:14:06;;;;;;;1.23;0.53;;;16.40;99.90;;;;;;5081772;28;20519;-78
2023/08/03 09:16:33;;;;;;;1.73;1.43;;;16.50;99.90;;;;;;5085145;28;20463;-78
2023/08/03 09:19:00;;;;;;;2.80;0.50;;;16.50;99.90;;;;;;5083760;28;21030;-79
2023/08/03 09:21:29;;;;;;;0.97;0.40;;;16.60;99.90;;;;;;5080642;28;20569;-77
2023/08/03 09:23:56;;;;;;;0.97;0.80;;;16.70;99.90;;;;;;5082949;28;20449;-79
2023/08/03 09:26:24;;;;;;;0.80;0.40;;;16.70;99.90;;;;;;5081789;28;20468;-78
2023/08/03 09:28:51;;;;;;;1.27;0.73;;;16.90;99.90;;;;;;5084696;28;20467;-77
2023/08/03 09:31:24;;;;;;;0.70;0.40;;;17.20;99.90;;;;;;5082836;28;20444;-78
2023/08/03 09:33:59;;;;;;;1.00;0.40;;;17.20;99.90;;;;;;5081187;28;20511;-78
2023/08/03 09:36:29;;;;;;;2.97;0.60;;;17.60;99.90;;;;;;5084303;28;20513;-77
2023/08/03 09:39:11;;;;;;;3.17;0.90;;;17.70;99.90;;;;;;5093905;28;20487;-77
2023/08/03 09:41:39;;;;;;;1.77;0.40;;;18.10;99.90;;;;;;5096225;28;20492;-79
2023/08/03 09:44:07;;;;;;;0.60;0.40;;;18.60;99.90;;;;;;5091718;28;20455;-79
2023/08/03 09:46:35;;;;;;;0.60;0.50;;;18.90;99.90;;;;;;5086662;28;20474;-78
2023/08/03 09:49:02;;;;;;;0.50;0.40;;;19.10;99.90;;;;;;5088551;28;20455;-78
2023/08/03 09:51:31;;;;;;;5.70;0.70;;;19.00;99.90;;;;;;5084601;28;20588;-78
2023/08/03 09:54:07;;;;;;;1.70;0.77;;;19.00;99.90;;;;;;5082612;28;20443;-80
2023/08/03 09:56:38;;;;;;;1.23;0.60;;;19.00;99.90;;;;;;5082952;28;20446;-78
2023/08/03 09:59:08;;;;;;;1.43;1.03;;;18.80;99.90;;;;;;5085674;28;20498;-77
2023/08/03 10:01:39;;;;;;;3.60;0.50;;;18.70;99.90;;;;;;5082939;28;20563;-80
2023/08/03 10:04:13;;;;;;;1.83;0.47;;;18.50;99.90;;;;;;5080668;28;20918;-78
2023/08/03 10:06:45;;;;;;;4.90;0.50;;;18.30;99.90;;;;;;5082405;28;20574;-80
2023/08/03 10:09:17;;;;;;;1.17;0.97;;;18.20;99.90;;;;;;5081089;28;20485;-78
2023/08/03 10:11:48;;;;;;;0.60;0.50;;;18.10;99.90;;;;;;5078320;28;20446;-78
2023/08/03 10:14:17;;;;;;;0.80;0.50;;;18.00;99.90;;;;;;5077556;28;20494;-77
2023/08/03 10:16:45;;;;;;;0.60;0.50;;;17.70;99.90;;;;;;5083529;28;20530;-78
2023/08/03 10:19:13;;;;;;;2.70;0.40;;;17.60;99.90;;;;;;5081825;28;20452;-78
2023/08/03 10:21:40;;;;;;;2.63;0.53;;;17.50;99.90;;;;;;5079697;28;20494;-78
2023/08/03 10:24:13;;;;;;;0.60;0.40;;;17.40;99.90;;;;;;5081150;28;20821;-78
2023/08/03 10:26:40;;;;;;;1.43;0.80;;;17.40;99.90;;;;;;5085711;28;20772;-78
2023/08/03 10:29:07;;;;;;;0.97;0.50;;;17.40;99.90;;;;;;5085166;28;20470;-80
2023/08/03 10:31:38;;;;;;;0.60;0.60;;;17.40;99.90;;;;;;5078122;28;20516;-78
2023/08/03 10:34:08;;;;;;;5.53;0.77;;;17.40;99.90;;;;;;5081869;28;21008;-78
2023/08/03 10:36:43;;;;;;;1.57;0.60;;;17.80;99.90;;;;;;5082470;28;20462;-79
2023/08/03 10:39:14;;;;;;;0.53;0.40;;;18.00;99.90;;;;;;5081677;28;20474;-80
2023/08/03 10:41:45;;;;;;;1.70;0.73;;;18.50;99.90;;;;;;5082218;28;20439;-78
2023/08/03 10:44:33;;;;;;;5.83;0.70;;;18.80;99.90;;;;;;5080985;28;20455;-78
2023/08/03 10:47:00;;;;;;;0.70;0.70;;;18.80;99.90;;;;;;5074396;28;20482;-78
2023/08/03 10:49:50;;;;;;;1.10;0.60;;;18.80;99.90;;;;;;5082780;28;20454;-78
2023/08/03 10:52:19;;;;;;;2.30;0.40;;;18.70;99.90;;;;;;5083907;28;20532;-78
2023/08/03 10:54:48;;;;;;;2.30;0.87;;;18.80;99.90;;;;;;5084877;28;20431;-79
2023/08/03 10:57:16;;;;;;;3.37;0.50;;;18.90;99.90;;;;;;5086009;28;20443;-78
2023/08/03 10:59:45;;;;;;;2.10;0.90;;;18.80;99.90;;;;;;5082478;28;21080;-78
2023/08/03 11:02:15;;;;;;;1.73;0.67;;;19.00;99.90;;;;;;5085756;28;20504;-78
2023/08/03 11:04:42;;;;;;;3.37;1.70;;;19.20;99.90;;;;;;5086070;28;20546;-79
2023/08/03 11:07:10;;;;;;;1.43;0.87;;;19.20;99.90;;;;;;5092635;28;20507;-80
2023/08/03 11:09:37;;;;;;;1.27;0.40;;;19.30;99.90;;;;;;5090099;28;20538;-80
2023/08/03 11:12:08;;;;;;;1.53;0.50;;;19.50;99.90;;;;;;5092556;28;20441;-81
2023/08/03 11:14:36;;;;;;;1.23;0.50;;;19.60;99.90;;;;;;5086938;28;20518;-80
2023/08/03 11:17:03;;;;;;;1.27;0.40;;;19.70;99.90;;;;;;5076601;28;20473;-80
2023/08/03 11:19:33;;;;;;;0.70;0.70;;;19.70;99.90;;;;;;5085525;28;21027;-77
2023/08/03 11:22:01;;;;;;;0.70;0.50;;;19.80;99.90;;;;;;5084532;28;20467;-79
2023/08/03 11:24:31;;;;;;;1.00;0.50;;;19.90;99.90;;;;;;5083045;28;20448;-79
2023/08/03 11:26:58;;;;;;;3.77;0.67;;;19.80;99.90;;;;;;5079485;28;21210;-78
2023/08/03 11:29:27;;;;;;;1.07;0.40;;;20.00;99.90;;;;;;5082472;28;20487;-78
2023/08/03 11:31:54;;;;;;;0.50;0.40;;;20.00;99.90;;;;;;5076137;28;20443;-78
2023/08/03 11:34:23;;;;;;;1.90;0.40;;;20.00;99.90;;;;;;5084583;28;20497;-78
2023/08/03 11:36:51;;;;;;;1.43;0.50;;;19.90;99.90;;;;;;5081814;28;20458;-79
2023/08/03 11:39:18;;;;;;;0.63;0.33;;;20.00;99.90;;;;;;5083588;28;20467;-78
2023/08/03 11:41:46;;;;;;;1.10;0.60;;;19.80;99.90;;;;;;5083374;28;20444;-79
2023/08/03 11:44:13;;;;;;;1.83;0.90;;;19.80;99.90;;;;;;5081762;28;20554;-78
2023/08/03 11:46:42;;;;;;;0.70;0.50;;;19.70;99.90;;;;;;5077006;28;21158;-78
2023/08/03 11:49:13;;;;;;;0.60;0.40;;;19.80;99.90;;;;;;5081343;28;20514;-78
2023/08/03 11:51:41;;;;;;;1.60;0.77;;;19.90;99.90;;;;;;5085928;28;20443;-78
2023/08/03 11:54:10;;;;;;;0.90;0.70;;;20.00;99.90;;;;;;5081740;28;20451;-78
2023/08/03 11:56:39;;;;;;;0.77;0.40;;;19.80;99.90;;;;;;5079504;28;20464;-81
2023/08/03 11:59:08;;;;;;;1.70;1.53;;;19.70;99.90;;;;;;5082830;28;20444;-79
2023/08/03 12:01:46;;;;;;;0.90;0.43;;;19.80;99.90;;;;;;5082466;28;20461;-79
2023/08/03 12:04:13;;;;;;;0.90;0.40;;;19.90;99.90;;;;;;5084537;28;20479;-79
2023/08/03 12:06:45;;;;;;;4.03;0.40;;;20.00;99.90;;;;;;5085914;28;20456;-79
2023/08/03 12:09:17;;;;;;;0.50;0.40;;;19.90;99.90;;;;;;5086339;28;20579;-81
2023/08/03 12:11:44;;;;;;;2.50;0.60;;;20.10;99.90;;;;;;5087831;28;20486;-82
2023/08/03 12:14:11;;;;;;;1.33;0.60;;;20.20;99.90;;;;;;5085898;28;20516;-80
2023/08/03 12:16:39;;;;;;;0.50;0.43;;;20.30;99.90;;;;;;5088210;28;20469;-80
2023/08/03 12:19:08;;;;;;;1.00;0.50;;;20.30;99.90;;;;;;5087087;28;20495;-79
2023/08/03 12:21:36;;;;;;;0.80;0.50;;;20.60;99.90;;;;;;5087849;28;20505;-79
2023/08/03 12:24:04;;;;;;;0.50;0.40;;;20.80;99.90;;;;;;5086251;28;20463;-79
2023/08/03 12:26:31;;;;;;;1.93;0.40;;;20.80;99.90;;;;;;5089781;28;20507;-81
2023/08/03 12:28:58;;;;;;;0.67;0.47;;;20.90;99.90;;;;;;5089068;28;20478;-80
2023/08/03 12:31:26;;;;;;;0.80;0.80;;;21.00;99.90;;;;;;5095386;28;21158;-81
2023/08/03 12:33:52;;;;;;;1.33;0.73;;;21.10;99.90;;;;;;5104686;28;20443;-80
2023/08/03 12:36:21;;;;;;;1.47;0.57;;;21.30;99.90;;;;;;5094491;28;20471;-80
2023/08/03 12:38:48;;;;;;;0.80;0.40;;;21.30;99.90;;;;;;5089585;28;20866;-79
2023/08/03 12:41:17;;;;;;;3.83;0.70;;;21.30;99.90;;;;;;5088028;28;20563;-80
2023/08/03 12:43:45;;;;;;;1.30;0.50;;;21.30;99.90;;;;;;5087766;28;21008;-80
2023/08/03 12:46:11;;;;;;;1.10;0.40;;;21.30;99.90;;;;;;5089405;28;20468;-80
2023/08/03 12:48:38;;;;;;;0.70;0.40;;;21.30;99.90;;;;;;5085071;28;20514;-80
2023/08/03 12:51:05;;;;;;;0.60;0.50;;;21.20;99.90;;;;;;5086691;28;20444;-80